createdAt,value
2018-02-20T00:00:13.737Z,47.75
2018-02-20T00:01:55.819Z,50.50
2018-02-20T00:03:33.719Z,50.00
2018-02-20T00:05:11.486Z,51.50
2018-02-20T00:06:47.914Z,48.25
2018-02-20T00:08:26.049Z,51.50
2018-02-20T00:10:02.384Z,46.00
2018-02-20T00:11:39.576Z,49.00
2018-02-20T00:13:15.904Z,49.75
2018-02-20T00:14:53.480Z,49.50
2018-02-20T00:16:30.413Z,47.25
2018-02-20T00:18:06.961Z,50.25
2018-02-20T00:19:44.410Z,47.00
2018-02-20T00:21:21.278Z,48.00
2018-02-20T00:23:04.623Z,45.50
2018-02-20T00:24:41.688Z,42.75
2018-02-20T00:26:18.433Z,45.50
2018-02-20T00:27:54.681Z,44.75
2018-02-20T00:29:31.793Z,45.00
2018-02-20T00:31:08.475Z,46.00
2018-02-20T00:32:45.070Z,47.25
2018-02-20T00:34:21.414Z,46.75
2018-02-20T00:35:58.106Z,46.00
2018-02-20T00:37:34.479Z,45.75
2018-02-20T00:39:11.102Z,44.25
2018-02-20T00:40:49.232Z,50.25
2018-02-20T00:42:26.614Z,48.25
2018-02-20T00:44:02.933Z,46.75
2018-02-20T00:45:39.245Z,48.00
2018-02-20T00:47:16.021Z,47.25
2018-02-20T00:48:52.280Z,53.25
2018-02-20T00:50:28.607Z,48.75
2018-02-20T00:52:05.729Z,51.00
2018-02-20T00:53:42.145Z,49.25
2018-02-20T00:55:19.773Z,50.00
2018-02-20T00:56:56.117Z,51.00
2018-02-20T00:58:32.638Z,50.50
2018-02-20T01:00:09.249Z,49.25
2018-02-20T01:01:46.119Z,49.25
2018-02-20T01:03:25.818Z,47.00
2018-02-20T01:05:03.221Z,50.00
2018-02-20T01:06:40.574Z,48.00
2018-02-20T01:08:19.255Z,48.25
2018-02-20T01:09:55.678Z,46.50
2018-02-20T01:11:32.131Z,46.50
2018-02-20T01:13:08.697Z,46.50
2018-02-20T01:14:45.274Z,44.25
2018-02-20T01:16:22.238Z,47.00
2018-02-20T01:17:58.629Z,48.25
2018-02-20T01:19:35.010Z,49.25
2018-02-20T01:21:12.282Z,48.75
2018-02-20T01:22:49.739Z,48.25
2018-02-20T01:24:26.728Z,47.75
2018-02-20T01:26:03.096Z,53.00
2018-02-20T01:27:39.599Z,47.50
2018-02-20T01:29:16.721Z,52.75
2018-02-20T01:30:53.812Z,49.00
2018-02-20T01:32:31.038Z,48.25
2018-02-20T01:34:07.564Z,47.25
2018-02-20T01:35:43.952Z,50.50
2018-02-20T01:37:21.050Z,53.00
2018-02-20T01:38:57.464Z,47.00
2018-02-20T01:40:33.859Z,53.25
2018-02-20T01:42:10.140Z,48.50
2018-02-20T01:43:46.747Z,50.25
2018-02-20T01:45:24.993Z,46.25
2018-02-20T01:47:02.164Z,47.50
2018-02-20T01:48:38.739Z,44.50
2018-02-20T01:50:15.028Z,49.25
2018-02-20T01:51:51.647Z,50.50
2018-02-20T01:53:27.907Z,46.75
2018-02-20T01:55:04.318Z,46.00
2018-02-20T01:56:43.073Z,46.25
2018-02-20T01:58:20.303Z,47.50
2018-02-20T01:59:57.888Z,48.00
2018-02-20T02:01:34.341Z,51.50
2018-02-20T02:03:11.139Z,52.00
2018-02-20T02:04:48.140Z,50.25
2018-02-20T02:06:24.820Z,48.50
2018-02-20T02:08:02.105Z,48.00
2018-02-20T02:09:38.547Z,47.50
2018-02-20T02:11:15.789Z,48.25
2018-02-20T02:12:52.439Z,50.50
2018-02-20T02:14:29.397Z,49.50
2018-02-20T02:16:06.296Z,47.75
2018-02-20T02:17:42.941Z,49.75
2018-02-20T02:19:19.395Z,49.75
2018-02-20T02:20:56.237Z,49.75
2018-02-20T02:22:32.727Z,48.00
2018-02-20T02:24:09.591Z,51.25
2018-02-20T02:25:45.922Z,49.25
2018-02-20T02:27:23.589Z,47.00
2018-02-20T02:29:00.255Z,48.75
2018-02-20T02:30:37.869Z,44.50
2018-02-20T02:32:15.608Z,46.75
2018-02-20T02:33:52.619Z,48.25
2018-02-20T02:35:29.989Z,48.25
2018-02-20T02:37:06.735Z,50.25
2018-02-20T02:38:43.773Z,53.50
2018-02-20T02:40:20.839Z,52.50
2018-02-20T02:41:57.687Z,48.75
2018-02-20T02:43:34.422Z,52.75
2018-02-20T02:45:11.209Z,48.75
2018-02-20T02:46:48.767Z,52.25
2018-02-20T02:48:25.468Z,53.75
2018-02-20T02:50:01.820Z,52.75
2018-02-20T02:51:38.365Z,46.50
2018-02-20T02:53:15.147Z,48.75
2018-02-20T02:54:51.871Z,50.25
2018-02-20T02:56:28.463Z,50.50
2018-02-20T02:58:05.175Z,46.75
2018-02-20T02:59:44.699Z,45.00
2018-02-20T03:01:22.464Z,51.50
2018-02-20T03:02:59.574Z,47.25
2018-02-20T03:04:35.932Z,48.75
2018-02-20T03:06:12.812Z,48.50
2018-02-20T03:07:50.480Z,50.00
2018-02-20T03:09:27.542Z,49.50
2018-02-20T03:11:04.787Z,47.00
2018-02-20T03:12:41.726Z,49.50
2018-02-20T03:15:50.973Z,49.00
2018-02-20T03:17:27.402Z,47.00
2018-02-20T03:19:04.518Z,50.25
2018-02-20T03:20:40.991Z,47.50
2018-02-20T03:22:18.131Z,45.75
2018-02-20T03:23:54.538Z,46.75
2018-02-20T03:25:30.927Z,48.00
2018-02-20T03:27:07.854Z,49.00
2018-02-20T03:28:44.824Z,46.00
2018-02-20T03:30:21.497Z,50.25
2018-02-20T03:32:00.276Z,48.00
2018-02-20T03:33:37.231Z,47.75
2018-02-20T03:35:15.311Z,46.25
2018-02-20T03:36:52.062Z,45.75
2018-02-20T03:38:28.364Z,48.75
2018-02-20T03:40:05.517Z,45.00
2018-02-20T03:41:42.410Z,49.00
2018-02-20T03:43:19.275Z,47.00
2018-02-20T03:44:56.064Z,47.75
2018-02-20T03:46:32.776Z,48.00
2018-02-20T03:48:10.584Z,45.25
2018-02-20T03:49:46.989Z,47.75
2018-02-20T03:51:24.012Z,46.25
2018-02-20T03:53:00.355Z,45.00
2018-02-20T03:54:36.840Z,47.75
2018-02-20T03:56:13.917Z,47.25
2018-02-20T03:57:50.669Z,46.75
2018-02-20T03:59:28.080Z,43.50
2018-02-20T04:01:04.802Z,46.75
2018-02-20T04:02:41.679Z,46.00
2018-02-20T04:04:18.315Z,54.25
2018-02-20T04:05:55.139Z,54.00
2018-02-20T04:07:31.742Z,55.25
2018-02-20T04:09:09.333Z,49.25
2018-02-20T04:10:46.819Z,50.75
2018-02-20T04:12:24.184Z,53.25
2018-02-20T04:14:00.832Z,52.25
2018-02-20T04:15:37.524Z,52.50
2018-02-20T04:17:14.252Z,47.00
2018-02-20T04:18:50.593Z,48.25
2018-02-20T04:20:27.022Z,47.50
2018-02-20T04:22:04.128Z,45.00
2018-02-20T04:23:40.466Z,51.75
2018-02-20T04:25:17.528Z,47.00
2018-02-20T04:26:53.843Z,48.25
2018-02-20T04:28:30.244Z,51.50
2018-02-20T04:30:07.191Z,48.75
2018-02-20T04:31:43.779Z,48.50
2018-02-20T04:33:20.111Z,48.25
2018-02-20T04:34:56.461Z,48.50
2018-02-20T04:36:33.700Z,47.00
2018-02-20T04:38:10.139Z,51.25
2018-02-20T04:39:46.590Z,50.75
2018-02-20T04:41:23.059Z,48.00
2018-02-20T04:42:59.417Z,47.50
2018-02-20T04:44:36.130Z,46.50
2018-02-20T04:46:12.841Z,51.75
2018-02-20T04:47:49.911Z,47.75
2018-02-20T04:49:27.534Z,44.50
2018-02-20T04:51:03.850Z,52.25
2018-02-20T04:52:41.682Z,46.75
2018-02-20T04:54:18.184Z,47.25
2018-02-20T04:55:54.685Z,50.75
2018-02-20T04:57:32.125Z,43.25
2018-02-20T04:59:08.551Z,49.00
2018-02-20T05:00:46.878Z,49.50
2018-02-20T05:02:23.229Z,49.00
2018-02-20T05:03:59.635Z,44.25
2018-02-20T05:05:36.183Z,51.50
2018-02-20T05:07:12.539Z,50.75
2018-02-20T05:08:49.272Z,48.50
2018-02-20T05:10:25.779Z,50.25
2018-02-20T05:12:02.605Z,48.75
2018-02-20T05:13:39.063Z,49.50
2018-02-20T05:15:17.420Z,52.00
2018-02-20T05:16:53.831Z,50.25
2018-02-20T05:18:31.396Z,48.50
2018-02-20T05:20:07.677Z,47.50
2018-02-20T05:21:44.026Z,50.50
2018-02-20T05:23:20.304Z,48.00
2018-02-20T05:24:57.109Z,50.25
2018-02-20T05:26:33.502Z,51.75
2018-02-20T05:28:10.547Z,51.00
2018-02-20T05:29:46.913Z,46.75
2018-02-20T05:31:23.642Z,48.50
2018-02-20T05:33:00.309Z,51.00
2018-02-20T05:34:37.349Z,51.25
2018-02-20T05:36:15.283Z,48.75
2018-02-20T05:37:52.493Z,50.75
2018-02-20T05:39:29.409Z,47.25
2018-02-20T05:41:05.673Z,51.50
2018-02-20T05:42:42.547Z,50.25
2018-02-20T05:44:18.831Z,45.50
2018-02-20T05:45:56.624Z,49.75
2018-02-20T05:49:10.650Z,54.00
2018-02-20T05:50:48.360Z,48.75
2018-02-20T05:52:25.131Z,51.75
2018-02-20T05:54:02.084Z,51.75
2018-02-20T05:55:38.599Z,52.50
2018-02-20T05:57:15.103Z,51.50
2018-02-20T05:58:52.763Z,50.75
2018-02-20T06:00:30.482Z,50.00
2018-02-20T06:02:10.014Z,49.50
2018-02-20T06:03:47.632Z,48.75
2018-02-20T06:05:24.380Z,51.50
2018-02-20T06:07:00.888Z,48.75
2018-02-20T06:08:37.987Z,50.00
2018-02-20T06:10:14.241Z,52.75
2018-02-20T06:11:51.320Z,51.50
2018-02-20T06:13:27.539Z,51.25
2018-02-20T06:15:04.936Z,51.00
2018-02-20T06:16:41.789Z,57.25
2018-02-20T06:18:18.660Z,51.00
2018-02-20T06:19:55.231Z,52.00
2018-02-20T06:21:32.276Z,52.75
2018-02-20T06:23:08.694Z,53.25
2018-02-20T06:24:45.854Z,49.00
2018-02-20T06:26:22.459Z,52.50
2018-02-20T06:27:58.773Z,47.50
2018-02-20T06:29:36.127Z,53.75
2018-02-20T06:31:13.160Z,50.25
2018-02-20T06:32:50.014Z,52.50
2018-02-20T06:34:26.310Z,53.75
2018-02-20T06:36:02.610Z,50.75
2018-02-20T06:37:39.997Z,50.00
2018-02-20T06:39:16.445Z,52.75
2018-02-20T06:40:53.776Z,67.50
2018-02-20T06:42:30.189Z,47.50
2018-02-20T06:44:06.485Z,55.75
2018-02-20T06:45:42.982Z,48.50
2018-02-20T06:47:19.333Z,48.25
2018-02-20T06:48:55.704Z,50.75
2018-02-20T06:50:32.408Z,50.00
2018-02-20T06:52:08.758Z,50.25
2018-02-20T06:53:45.072Z,55.50
2018-02-20T06:55:22.164Z,50.75
2018-02-20T06:57:00.493Z,70.50
2018-02-20T06:58:37.593Z,55.75
2018-02-20T07:00:15.331Z,63.75
2018-02-20T07:01:52.011Z,52.50
2018-02-20T07:03:28.979Z,47.50
2018-02-20T07:05:05.708Z,51.25
2018-02-20T07:06:41.973Z,51.75
2018-02-20T07:08:18.862Z,46.50
2018-02-20T07:09:57.192Z,52.25
2018-02-20T07:11:33.508Z,51.75
2018-02-20T07:13:09.905Z,56.00
2018-02-20T07:14:48.149Z,56.00
2018-02-20T07:16:24.765Z,56.00
2018-02-20T07:18:02.081Z,54.50
2018-02-20T07:19:38.379Z,57.50
2018-02-20T07:21:14.677Z,53.75
2018-02-20T07:22:52.944Z,54.75
2018-02-20T07:24:29.269Z,57.00
2018-02-20T07:26:05.517Z,56.25
2018-02-20T07:27:41.768Z,52.25
2018-02-20T07:29:19.684Z,51.75
2018-02-20T07:30:56.028Z,50.25
2018-02-20T07:32:32.288Z,51.00
2018-02-20T07:34:08.618Z,50.50
2018-02-20T07:35:47.576Z,51.75
2018-02-20T07:37:23.860Z,47.25
2018-02-20T07:39:00.224Z,54.00
2018-02-20T07:40:37.388Z,53.00
2018-02-20T07:42:14.093Z,58.00
2018-02-20T07:43:50.506Z,56.25
2018-02-20T07:45:28.987Z,54.25
2018-02-20T07:47:05.459Z,52.75
2018-02-20T07:48:42.499Z,54.75
2018-02-20T07:50:18.822Z,52.25
2018-02-20T07:51:55.146Z,52.50
2018-02-20T07:53:31.507Z,48.25
2018-02-20T07:55:09.051Z,50.00
2018-02-20T07:56:45.497Z,54.00
2018-02-20T07:58:21.792Z,55.75
2018-02-20T07:59:58.046Z,60.75
2018-02-20T08:01:35.157Z,54.00
2018-02-20T08:03:11.470Z,55.25
2018-02-20T08:04:47.780Z,56.25
2018-02-20T08:06:24.094Z,57.75
2018-02-20T08:08:00.770Z,61.75
2018-02-20T08:09:37.185Z,58.00
2018-02-20T08:11:13.531Z,57.50
2018-02-20T08:12:49.897Z,55.50
2018-02-20T08:14:26.996Z,56.25
2018-02-20T08:16:04.120Z,53.25
2018-02-20T08:17:40.480Z,50.75
2018-02-20T08:19:16.752Z,57.25
2018-02-20T08:20:53.467Z,57.25
2018-02-20T08:22:29.875Z,55.75
2018-02-20T08:24:06.424Z,53.75
2018-02-20T08:25:42.862Z,53.50
2018-02-20T08:27:19.549Z,54.50
2018-02-20T08:28:57.604Z,52.75
2018-02-20T08:30:34.526Z,55.75
2018-02-20T08:32:10.893Z,57.00
2018-02-20T08:33:47.720Z,57.50
2018-02-20T08:35:24.148Z,58.50
2018-02-20T08:37:00.486Z,58.75
2018-02-20T08:38:36.794Z,56.75
2018-02-20T08:40:13.599Z,60.25
2018-02-20T08:41:51.085Z,60.25
2018-02-20T08:43:28.151Z,57.50
2018-02-20T08:45:05.383Z,53.75
2018-02-20T08:46:42.379Z,56.50
2018-02-20T08:48:18.704Z,60.00
2018-02-20T08:49:55.712Z,58.25
2018-02-20T08:51:32.057Z,50.50
2018-02-20T08:53:08.757Z,57.00
2018-02-20T08:54:45.086Z,46.75
2018-02-20T08:56:21.434Z,52.75
2018-02-20T08:57:57.748Z,52.00
2018-02-20T08:59:34.392Z,46.50
2018-02-20T09:01:11.025Z,54.50
2018-02-20T09:02:47.302Z,51.00
2018-02-20T09:04:23.601Z,51.25
2018-02-20T09:06:01.197Z,51.75
2018-02-20T09:07:38.263Z,57.50
2018-02-20T09:09:15.448Z,51.75
2018-02-20T09:10:51.914Z,59.25
2018-02-20T09:12:28.637Z,56.50
2018-02-20T09:14:04.875Z,50.25
2018-02-20T09:15:41.471Z,50.25
2018-02-20T09:17:17.780Z,51.00
2018-02-20T09:18:54.692Z,54.00
2018-02-20T09:20:30.958Z,52.50
2018-02-20T09:22:07.291Z,53.50
2018-02-20T09:23:44.640Z,59.00
2018-02-20T09:25:21.459Z,55.50
2018-02-20T09:26:58.456Z,55.75
2018-02-20T09:28:34.781Z,51.50
2018-02-20T09:30:11.386Z,55.50
2018-02-20T09:31:48.587Z,51.00
2018-02-20T09:33:24.900Z,47.75
2018-02-20T09:35:01.186Z,54.75
2018-02-20T09:36:37.760Z,53.00
2018-02-20T09:38:14.670Z,53.00
2018-02-20T09:39:50.951Z,54.25
2018-02-20T09:41:28.024Z,53.75
2018-02-20T09:43:04.353Z,49.75
2018-02-20T09:44:41.063Z,49.50
2018-02-20T09:46:17.729Z,50.25
2018-02-20T09:47:54.000Z,56.00
2018-02-20T09:49:31.185Z,51.00
2018-02-20T09:51:09.684Z,54.50
2018-02-20T09:52:47.070Z,52.50
2018-02-20T09:54:24.111Z,58.25
2018-02-20T09:56:01.567Z,50.75
2018-02-20T09:57:38.213Z,52.75
2018-02-20T09:59:14.599Z,55.25
2018-02-20T10:00:51.260Z,56.00
2018-02-20T10:02:27.579Z,55.75
2018-02-20T10:04:04.398Z,58.00
2018-02-20T10:05:40.703Z,48.75
2018-02-20T10:07:17.010Z,45.75
2018-02-20T10:08:53.337Z,53.75
2018-02-20T10:10:29.919Z,53.75
2018-02-20T10:12:07.007Z,57.50
2018-02-20T10:13:43.315Z,58.00
2018-02-20T10:15:20.137Z,56.75
2018-02-20T10:16:57.985Z,49.75
2018-02-20T10:18:34.367Z,54.75
2018-02-20T10:20:10.762Z,54.00
2018-02-20T10:21:47.065Z,54.50
2018-02-20T10:23:23.939Z,54.50
2018-02-20T10:25:00.422Z,49.50
2018-02-20T10:26:36.682Z,54.00
2018-02-20T10:28:13.111Z,53.25
2018-02-20T10:29:50.308Z,56.50
2018-02-20T10:31:26.976Z,55.50
2018-02-20T10:33:03.316Z,55.50
2018-02-20T10:34:39.584Z,54.75
2018-02-20T10:36:16.380Z,54.00
2018-02-20T10:37:52.714Z,60.25
2018-02-20T10:39:28.991Z,61.75
2018-02-20T10:41:05.388Z,63.75
2018-02-20T10:42:43.648Z,56.50
2018-02-20T10:44:20.905Z,54.75
2018-02-20T10:45:58.426Z,53.25
2018-02-20T10:47:34.691Z,50.50
2018-02-20T10:49:11.513Z,44.75
2018-02-20T10:50:48.062Z,57.25
2018-02-20T10:52:24.446Z,59.00
2018-02-20T10:54:01.986Z,57.75
2018-02-20T10:55:38.845Z,48.50
2018-02-20T10:57:15.206Z,53.00
2018-02-20T10:58:51.748Z,55.50
2018-02-20T11:00:30.206Z,57.00
2018-02-20T11:02:07.029Z,51.75
2018-02-20T11:03:44.246Z,61.25
2018-02-20T11:05:20.645Z,54.75
2018-02-20T11:06:56.959Z,52.50
2018-02-20T11:08:33.728Z,61.75
2018-02-20T11:10:10.964Z,59.50
2018-02-20T11:11:48.313Z,59.00
2018-02-20T11:13:24.608Z,59.25
2018-02-20T11:15:02.488Z,57.75
2018-02-20T11:16:39.129Z,56.25
2018-02-20T11:18:18.384Z,46.00
2018-02-20T11:19:55.255Z,56.00
2018-02-20T11:21:31.583Z,59.50
2018-02-20T11:23:08.617Z,56.75
2018-02-20T11:24:45.008Z,55.00
2018-02-20T11:26:21.738Z,61.75
2018-02-20T11:27:58.084Z,52.25
2018-02-20T11:29:34.769Z,60.50
2018-02-20T11:31:11.385Z,55.75
2018-02-20T11:32:48.238Z,50.50
2018-02-20T11:34:25.329Z,56.25
2018-02-20T11:36:01.854Z,60.25
2018-02-20T11:37:39.038Z,62.00
2018-02-20T11:39:15.385Z,57.50
2018-02-20T11:40:52.609Z,62.25
2018-02-20T11:42:29.116Z,56.25
2018-02-20T11:44:05.904Z,62.00
2018-02-20T11:45:42.697Z,59.50
2018-02-20T11:47:19.291Z,52.75
2018-02-20T11:48:55.997Z,54.25
2018-02-20T11:50:32.968Z,57.25
2018-02-20T11:52:09.482Z,61.25
2018-02-20T11:53:46.712Z,56.50
2018-02-20T11:55:23.063Z,64.50
2018-02-20T11:57:00.053Z,62.50
2018-02-20T11:58:37.569Z,61.25
2018-02-20T12:00:17.212Z,61.00
2018-02-20T12:01:53.833Z,68.00
2018-02-20T12:03:30.600Z,64.75
2018-02-20T12:05:07.799Z,67.75
2018-02-20T12:06:44.267Z,63.00
2018-02-20T12:08:20.800Z,64.50
2018-02-20T12:09:58.600Z,65.75
2018-02-20T12:11:35.813Z,66.75
2018-02-20T12:13:13.073Z,67.25
2018-02-20T12:14:49.435Z,68.25
2018-02-20T12:17:58.507Z,67.25
2018-02-20T12:19:34.895Z,66.00
2018-02-20T12:21:11.264Z,63.75
2018-02-20T12:22:47.974Z,65.00
2018-02-20T12:24:24.374Z,65.75
2018-02-20T12:26:01.607Z,64.25
2018-02-20T12:27:37.997Z,56.75
2018-02-20T12:29:15.120Z,62.75
2018-02-20T12:30:51.844Z,60.25
2018-02-20T12:32:28.421Z,65.50
2018-02-20T12:34:04.856Z,61.25
2018-02-20T12:35:41.790Z,62.25
2018-02-20T12:37:18.280Z,53.25
2018-02-20T12:38:54.997Z,59.00
2018-02-20T12:40:31.636Z,58.00
2018-02-20T12:42:08.521Z,61.00
2018-02-20T12:43:44.909Z,60.50
2018-02-20T12:45:24.429Z,65.75
2018-02-20T12:47:01.052Z,66.50
2018-02-20T12:48:38.282Z,58.25
2018-02-20T12:50:14.638Z,63.75
2018-02-20T12:51:51.065Z,62.25
2018-02-20T12:53:27.627Z,56.25
2018-02-20T12:55:05.163Z,60.25
2018-02-20T12:56:42.509Z,59.75
2018-02-20T12:58:19.054Z,51.50
2018-02-20T12:59:56.067Z,61.50
2018-02-20T13:01:32.995Z,58.25
2018-02-20T13:03:09.507Z,59.00
2018-02-20T13:04:46.182Z,61.50
2018-02-20T13:06:23.325Z,62.25
2018-02-20T13:08:00.522Z,65.00
2018-02-20T13:09:37.543Z,60.75
2018-02-20T13:11:14.591Z,62.25
2018-02-20T13:12:51.835Z,62.00
2018-02-20T13:14:29.073Z,60.50
2018-02-20T13:16:05.852Z,62.25
2018-02-20T13:17:42.276Z,60.25
2018-02-20T13:19:19.199Z,59.75
2018-02-20T13:20:55.768Z,62.25
2018-02-20T13:22:32.535Z,60.25
2018-02-20T13:24:09.084Z,63.50
2018-02-20T13:25:46.131Z,48.00
2018-02-20T13:27:22.558Z,63.00
2018-02-20T13:28:59.506Z,51.00
2018-02-20T13:30:36.259Z,57.25
2018-02-20T13:32:13.081Z,57.75
2018-02-20T13:33:49.662Z,52.50
2018-02-20T13:35:26.861Z,53.00
2018-02-20T13:37:04.219Z,51.50
2018-02-20T13:38:41.020Z,53.00
2018-02-20T13:40:18.082Z,35.50
2018-02-20T13:43:26.622Z,47.00
2018-02-20T13:45:04.717Z,55.00
2018-02-20T13:46:41.240Z,55.00
2018-02-20T13:48:17.663Z,51.50
2018-02-20T13:49:54.458Z,44.75
2018-02-20T13:51:31.344Z,54.50
2018-02-20T13:53:07.852Z,55.25
2018-02-20T13:54:45.134Z,40.00
2018-02-20T13:56:21.713Z,40.25
2018-02-20T13:57:59.459Z,41.75
2018-02-20T13:59:35.938Z,41.00
2018-02-20T14:01:12.758Z,44.00
2018-02-20T14:02:49.927Z,43.75
2018-02-20T14:04:26.571Z,45.75
2018-02-20T14:06:03.068Z,43.00
2018-02-20T14:07:39.580Z,43.50
2018-02-20T14:09:16.031Z,46.00
2018-02-20T14:10:52.715Z,48.00
2018-02-20T14:12:29.132Z,49.25
2018-02-20T14:14:05.622Z,47.75
2018-02-20T14:15:42.378Z,47.25
2018-02-20T14:17:19.569Z,49.50
2018-02-20T14:18:57.904Z,50.75
2018-02-20T14:20:34.484Z,45.00
2018-02-20T14:22:11.713Z,49.25
2018-02-20T14:23:49.834Z,51.75
2018-02-20T14:25:26.608Z,47.50
2018-02-20T14:27:03.108Z,50.00
2018-02-20T14:28:39.804Z,49.00
2018-02-20T14:30:20.333Z,52.75
2018-02-20T14:31:57.167Z,50.00
2018-02-20T14:33:34.277Z,53.75
2018-02-20T14:35:11.247Z,48.00
2018-02-20T14:36:47.655Z,46.00
2018-02-20T14:38:24.067Z,49.25
2018-02-20T14:40:00.799Z,44.25
2018-02-20T14:41:39.765Z,40.00
2018-02-20T14:43:16.178Z,30.50
2018-02-20T14:44:52.602Z,45.25
2018-02-20T14:46:29.316Z,43.75
2018-02-20T14:48:06.271Z,40.25
2018-02-20T14:49:43.547Z,42.25
2018-02-20T14:51:20.053Z,39.00
2018-02-20T14:52:57.476Z,39.75
2018-02-20T14:54:34.363Z,44.25
2018-02-20T14:56:12.554Z,42.25
2018-02-20T14:57:48.957Z,45.75
2018-02-20T14:59:26.174Z,46.25
2018-02-20T15:01:03.473Z,43.50
2018-02-20T15:02:39.980Z,50.00
2018-02-20T15:04:16.816Z,50.50
2018-02-20T15:05:53.453Z,45.50
2018-02-20T15:07:31.393Z,46.00
2018-02-20T15:09:08.093Z,35.50
2018-02-20T15:10:44.559Z,49.00
2018-02-20T15:12:21.074Z,45.00
2018-02-20T15:13:59.203Z,42.50
2018-02-20T15:15:37.496Z,44.00
2018-02-20T15:17:14.105Z,47.00
2018-02-20T15:18:50.534Z,46.50
2018-02-20T15:20:27.737Z,43.75
2018-02-20T15:22:04.825Z,46.50
2018-02-20T15:23:41.909Z,41.75
2018-02-20T15:25:18.781Z,47.00
2018-02-20T15:26:56.405Z,48.00
2018-02-20T15:28:33.417Z,49.00
2018-02-20T15:30:11.773Z,49.50
2018-02-20T15:31:48.462Z,52.50
2018-02-20T15:33:26.319Z,53.75
2018-02-20T15:35:03.719Z,53.50
2018-02-20T15:36:40.786Z,46.75
2018-02-20T15:38:17.224Z,50.00
2018-02-20T15:39:54.687Z,42.00
2018-02-20T15:41:32.194Z,49.50
2018-02-20T15:43:09.059Z,44.50
2018-02-20T15:44:46.538Z,41.50
2018-02-20T15:46:25.342Z,37.75
2018-02-20T15:48:02.773Z,45.00
2018-02-20T15:49:41.194Z,46.75
2018-02-20T15:51:18.008Z,47.75
2018-02-20T15:52:56.187Z,38.00
2018-02-20T15:54:33.899Z,51.00
2018-02-20T15:56:12.001Z,48.00
2018-02-20T15:57:49.820Z,45.25
2018-02-20T15:59:28.516Z,45.50
2018-02-20T16:01:05.774Z,52.50
2018-02-20T16:02:44.076Z,58.00
2018-02-20T16:04:20.938Z,46.25
2018-02-20T16:06:00.482Z,52.00
2018-02-20T16:07:39.319Z,52.00
2018-02-20T16:09:23.202Z,47.00
2018-02-20T16:11:00.484Z,50.25
2018-02-20T16:12:39.790Z,46.50
2018-02-20T16:14:18.705Z,49.25
2018-02-20T16:15:57.202Z,44.75
2018-02-20T16:17:35.029Z,30.25
2018-02-20T16:19:14.088Z,42.75
2018-02-20T16:20:51.550Z,48.25
2018-02-20T16:22:29.065Z,49.50
2018-02-20T16:24:06.564Z,49.00
2018-02-20T16:25:43.774Z,49.50
2018-02-20T16:27:20.364Z,46.75
2018-02-20T16:28:58.328Z,50.00
2018-02-20T16:30:35.065Z,47.00
2018-02-20T16:32:12.483Z,52.50
2018-02-20T16:33:49.654Z,52.25
2018-02-20T16:35:26.170Z,51.25
2018-02-20T16:37:03.227Z,49.00
2018-02-20T16:38:40.657Z,52.75
2018-02-20T16:40:17.412Z,38.50
2018-02-20T16:41:53.975Z,52.50
2018-02-20T16:43:30.564Z,47.25
2018-02-20T16:45:07.707Z,52.75
2018-02-20T16:48:18.941Z,48.00
2018-02-20T16:49:56.821Z,47.50
2018-02-20T16:51:34.759Z,44.00
2018-02-20T16:53:11.496Z,49.25
2018-02-20T16:54:48.679Z,54.50
2018-02-20T16:56:27.918Z,50.00
2018-02-20T16:58:05.751Z,49.50
2018-02-20T16:59:42.659Z,43.75
2018-02-20T17:01:19.961Z,51.75
2018-02-20T17:02:59.207Z,56.25
2018-02-20T17:04:38.314Z,53.00
2018-02-20T17:06:19.042Z,56.00
2018-02-20T17:07:57.286Z,43.75
2018-02-20T17:09:33.779Z,56.50
2018-02-20T17:11:14.442Z,47.25
2018-02-20T17:12:52.776Z,54.25
2018-02-20T17:14:29.599Z,48.50
2018-02-20T17:16:07.342Z,50.75
2018-02-20T17:17:50.213Z,46.25
2018-02-20T17:19:30.455Z,47.75
2018-02-20T17:21:13.768Z,55.75
2018-02-20T17:22:54.713Z,47.50
2018-02-20T17:24:33.918Z,50.75
2018-02-20T17:26:11.225Z,47.25
2018-02-20T17:27:47.794Z,48.00
2018-02-20T17:29:26.303Z,51.25
2018-02-20T17:31:05.264Z,50.00
2018-02-20T17:32:42.852Z,48.00
2018-02-20T17:34:20.384Z,53.00
2018-02-20T17:35:58.379Z,45.50
2018-02-20T17:37:35.152Z,54.25
2018-02-20T17:39:13.453Z,55.25
2018-02-20T17:40:50.178Z,55.50
2018-02-20T17:42:27.352Z,54.25
2018-02-20T17:44:04.037Z,56.25
2018-02-20T17:45:44.229Z,53.00
2018-02-20T17:47:22.508Z,51.25
2018-02-20T17:49:01.492Z,48.00
2018-02-20T17:50:42.215Z,53.00
2018-02-20T17:52:19.148Z,50.50
2018-02-20T17:53:55.682Z,57.00
2018-02-20T17:55:32.422Z,53.25
2018-02-20T17:57:09.625Z,48.00
2018-02-20T17:58:46.310Z,47.75
2018-02-20T18:00:25.349Z,55.25
2018-02-20T18:02:02.417Z,49.25
2018-02-20T18:03:39.317Z,53.25
2018-02-20T18:05:15.961Z,51.75
2018-02-20T18:06:52.716Z,51.00
2018-02-20T18:08:31.557Z,51.50
2018-02-20T18:10:08.291Z,52.00
2018-02-20T18:11:44.651Z,53.50
2018-02-20T18:13:21.706Z,50.75
2018-02-20T18:15:00.705Z,52.75
2018-02-20T18:16:37.419Z,52.25
2018-02-20T18:18:14.140Z,53.50
2018-02-20T18:19:50.792Z,48.75
2018-02-20T18:21:27.612Z,53.50
2018-02-20T18:23:04.725Z,54.75
2018-02-20T18:24:41.869Z,56.50
2018-02-20T18:26:18.485Z,53.00
2018-02-20T18:27:55.120Z,52.75
2018-02-20T18:29:31.583Z,53.00
2018-02-20T18:31:09.710Z,56.00
2018-02-20T18:32:46.147Z,58.25
2018-02-20T18:34:22.920Z,50.75
2018-02-20T18:35:59.622Z,57.25
2018-02-20T18:37:36.056Z,59.25
2018-02-20T18:39:13.043Z,48.00
2018-02-20T18:40:50.714Z,49.25
2018-02-20T18:42:27.406Z,58.00
2018-02-20T18:44:04.619Z,54.00
2018-02-20T18:45:42.064Z,58.25
2018-02-20T18:47:19.246Z,47.75
2018-02-20T18:48:55.931Z,34.00
2018-02-20T18:50:32.865Z,39.00
2018-02-20T18:52:09.360Z,60.75
2018-02-20T18:53:47.051Z,47.25
2018-02-20T18:55:23.523Z,53.50
2018-02-20T18:57:00.345Z,61.50
2018-02-20T18:58:37.079Z,54.00
2018-02-20T19:00:15.743Z,57.25
2018-02-20T19:01:52.831Z,52.25
2018-02-20T19:03:29.286Z,60.00
2018-02-20T19:05:06.929Z,55.50
2018-02-20T19:06:43.865Z,56.00
2018-02-20T19:08:20.690Z,54.50
2018-02-20T19:09:57.165Z,48.75
2018-02-20T19:11:33.953Z,51.25
2018-02-20T19:13:12.311Z,59.00
2018-02-20T19:14:48.964Z,57.25
2018-02-20T19:17:57.844Z,56.75
2018-02-20T19:19:34.766Z,56.00
2018-02-20T19:21:11.244Z,59.50
2018-02-20T19:22:47.924Z,56.75
2018-02-20T19:24:24.569Z,56.00
2018-02-20T19:26:01.572Z,59.25
2018-02-20T19:27:37.952Z,53.75
2018-02-20T19:29:14.824Z,53.50
2018-02-20T19:30:52.519Z,54.75
2018-02-20T19:32:30.018Z,57.25
2018-02-20T19:34:06.570Z,56.25
2018-02-20T19:35:43.149Z,52.50
2018-02-20T19:37:19.659Z,53.25
2018-02-20T19:38:56.572Z,55.50
2018-02-20T19:40:33.766Z,59.00
2018-02-20T19:42:10.337Z,51.00
2018-02-20T19:43:47.489Z,48.00
2018-02-20T19:45:25.528Z,62.00
2018-02-20T19:47:02.705Z,44.00
2018-02-20T19:48:39.875Z,48.25
2018-02-20T19:50:17.336Z,42.50
2018-02-20T19:51:54.123Z,59.00
2018-02-20T19:53:30.575Z,56.75
2018-02-20T19:55:07.288Z,56.50
2018-02-20T19:56:44.576Z,54.50
2018-02-20T19:58:21.170Z,58.00
2018-02-20T19:59:57.665Z,60.00
2018-02-20T20:01:34.649Z,54.00
2018-02-20T20:03:12.303Z,59.75
2018-02-20T20:04:49.531Z,59.25
2018-02-20T20:06:25.961Z,60.00
2018-02-20T20:08:02.664Z,58.50
2018-02-20T20:09:39.550Z,61.25
2018-02-20T20:11:15.945Z,59.25
2018-02-20T20:13:16.697Z,64.25
2018-02-20T20:14:54.233Z,61.75
2018-02-20T20:16:31.037Z,62.50
2018-02-20T20:18:07.830Z,65.75
2018-02-20T20:19:44.280Z,57.75
2018-02-20T20:21:21.166Z,60.75
2018-02-20T20:22:57.538Z,63.00
2018-02-20T20:24:33.952Z,63.25
2018-02-20T20:26:11.012Z,58.75
2018-02-20T20:27:48.531Z,52.75
2018-02-20T20:29:24.897Z,65.25
2018-02-20T20:31:01.504Z,58.00
2018-02-20T20:32:38.818Z,57.00
2018-02-20T20:34:15.761Z,61.75
2018-02-20T20:35:53.167Z,56.75
2018-02-20T20:37:29.460Z,55.25
2018-02-20T20:39:06.176Z,58.50
2018-02-20T20:40:42.928Z,50.75
2018-02-20T20:42:19.423Z,54.50
2018-02-20T20:43:55.814Z,59.50
2018-02-20T20:45:32.586Z,56.25
2018-02-20T20:47:08.884Z,61.75
2018-02-20T20:48:45.225Z,56.25
2018-02-20T20:50:22.388Z,60.00
2018-02-20T20:51:58.915Z,61.50
2018-02-20T20:53:35.596Z,65.00
2018-02-20T20:55:12.012Z,61.50
2018-02-20T20:56:48.595Z,59.25
2018-02-20T20:58:25.092Z,58.75